createdAt,value
2022-12-23T00:02:34.327Z,100122.69
2022-12-23T00:05:40.327Z,100113.53
2022-12-23T00:08:43.254Z,100095.56
2022-12-23T00:12:12.052Z,100116.72
2022-12-23T00:15:14.731Z,100108.44
2022-12-23T00:18:18.231Z,100119.00
2022-12-23T00:21:21.137Z,100109.00
2022-12-23T00:24:23.709Z,100105.94
2022-12-23T00:27:26.353Z,100107.41
2022-12-23T00:30:29.061Z,100100.97
2022-12-23T00:33:34.519Z,100113.50
2022-12-23T00:36:38.429Z,100123.06
2022-12-23T00:40:05.923Z,100110.75
2022-12-23T00:43:09.272Z,100128.91
2022-12-23T00:46:11.994Z,100107.84
2022-12-23T00:49:34.822Z,100101.22
2022-12-23T00:52:37.344Z,100102.81
2022-12-23T00:55:39.751Z,100125.09
2022-12-23T00:58:42.573Z,100119.44
2022-12-23T01:02:03.868Z,100130.03
2022-12-23T01:05:42.269Z,100100.81
2022-12-23T01:08:44.774Z,100106.03
2022-12-23T01:11:47.231Z,100091.88
2022-12-23T01:14:49.795Z,100093.22
2022-12-23T01:17:52.353Z,100108.31
2022-12-23T01:20:54.918Z,100084.38
2022-12-23T01:23:57.662Z,100089.06
2022-12-23T01:27:00.771Z,100068.81
2022-12-23T01:30:03.967Z,100060.81
2022-12-23T01:33:06.597Z,100086.44
2022-12-23T01:36:10.701Z,100066.94
2022-12-23T01:39:13.356Z,100078.25
2022-12-23T01:42:37.204Z,100074.84
2022-12-23T01:45:39.710Z,100070.28
2022-12-23T01:48:46.044Z,100049.34
2022-12-23T01:51:48.678Z,100044.69
2022-12-23T01:54:51.850Z,100057.06
2022-12-23T01:57:57.232Z,100054.41
2022-12-23T02:01:19.663Z,100053.34
2022-12-23T02:04:25.474Z,100054.41
2022-12-23T02:07:46.811Z,100045.16
2022-12-23T02:11:13.483Z,100060.53
2022-12-23T02:14:35.619Z,100052.22
2022-12-23T02:18:05.742Z,100062.56
2022-12-23T02:21:40.285Z,100058.19
2022-12-23T02:25:04.751Z,100050.69
2022-12-23T02:28:33.105Z,100053.06
2022-12-23T02:31:41.558Z,100060.97
2022-12-23T02:34:59.710Z,100064.63
2022-12-23T02:38:23.382Z,100057.38
2022-12-23T02:41:31.679Z,100051.41
2022-12-23T02:44:59.164Z,100040.56
2022-12-23T02:48:27.164Z,100039.41
2022-12-23T02:51:35.053Z,100039.06
2022-12-23T02:54:43.306Z,100036.16
2022-12-23T02:57:49.479Z,100029.56
2022-12-23T03:00:54.452Z,100015.75
2022-12-23T03:03:57.027Z,100027.03
2022-12-23T03:07:04.473Z,100013.06
2022-12-23T03:10:31.183Z,100011.47
2022-12-23T03:13:36.565Z,100031.47
2022-12-23T03:16:44.831Z,100042.91
2022-12-23T03:19:58.213Z,100035.25
2022-12-23T03:23:21.259Z,100034.44
2022-12-23T03:26:34.426Z,100025.66
2022-12-23T03:29:53.361Z,100023.69
2022-12-23T03:33:01.669Z,100022.28
2022-12-23T03:36:13.199Z,100025.28
2022-12-23T03:39:20.106Z,100041.00
2022-12-23T03:42:29.040Z,100019.81
2022-12-23T03:45:41.800Z,100025.56
2022-12-23T03:49:08.783Z,100018.91
2022-12-23T03:52:21.458Z,100021.50
2022-12-23T03:55:40.643Z,100024.53
2022-12-23T03:58:47.816Z,100025.00
2022-12-23T04:02:22.178Z,100009.53
2022-12-23T04:05:36.025Z,100004.50
2022-12-23T04:08:39.934Z,100001.16
2022-12-23T04:11:42.568Z,100007.41
2022-12-23T04:14:49.229Z,100004.38
2022-12-23T04:17:53.534Z,100004.84
2022-12-23T04:20:59.742Z,100006.81
2022-12-23T04:24:02.101Z,100007.00
2022-12-23T04:27:05.121Z,99997.75
2022-12-23T04:30:10.047Z,99975.91
2022-12-23T04:33:13.002Z,99994.84
2022-12-23T04:36:15.414Z,99986.72
2022-12-23T04:39:17.931Z,99996.00
2022-12-23T04:42:20.363Z,100010.75
2022-12-23T04:45:22.805Z,100003.50
2022-12-23T04:48:25.296Z,100022.09
2022-12-23T04:51:27.860Z,100018.22
2022-12-23T04:54:30.287Z,100010.94
2022-12-23T04:57:32.798Z,100005.13
2022-12-23T05:00:39.734Z,100017.53
2022-12-23T05:03:42.715Z,100018.19
2022-12-23T05:06:45.252Z,100020.44
2022-12-23T05:09:47.816Z,100004.84
2022-12-23T05:12:50.269Z,100010.31
2022-12-23T05:15:54.140Z,100016.94
2022-12-23T05:18:56.737Z,100026.28
2022-12-23T05:21:59.277Z,100033.34
2022-12-23T05:25:01.704Z,100028.59
2022-12-23T05:28:05.494Z,100037.59
2022-12-23T05:31:10.699Z,100018.59
2022-12-23T05:34:13.325Z,100008.31
2022-12-23T05:37:15.765Z,100006.06
2022-12-23T05:40:23.850Z,100002.25
2022-12-23T05:43:28.053Z,100030.81
2022-12-23T05:46:30.620Z,100009.66
2022-12-23T05:49:33.170Z,100038.97
2022-12-23T05:52:35.812Z,100045.25
2022-12-23T05:55:38.308Z,100040.38
2022-12-23T05:58:41.313Z,100020.16
2022-12-23T06:01:43.886Z,100042.63
2022-12-23T06:04:46.474Z,100020.94
2022-12-23T06:07:48.930Z,100025.88
2022-12-23T06:10:54.421Z,100030.38
2022-12-23T06:13:56.892Z,100002.78
2022-12-23T06:16:59.388Z,100018.50
2022-12-23T06:20:02.102Z,100035.06
2022-12-23T06:23:05.038Z,100021.72
2022-12-23T06:26:07.506Z,100027.50
2022-12-23T06:29:11.187Z,100031.69
2022-12-23T06:32:13.879Z,100016.44
2022-12-23T06:35:16.464Z,100025.91
2022-12-23T06:38:18.957Z,100031.81
2022-12-23T06:41:21.618Z,100020.41
2022-12-23T06:44:24.317Z,100027.63
2022-12-23T06:47:26.707Z,100036.56
2022-12-23T06:50:29.967Z,100043.91
2022-12-23T06:53:32.510Z,100041.06
2022-12-23T06:56:35.003Z,100051.63
2022-12-23T06:59:37.478Z,100062.28
2022-12-23T07:02:40.399Z,100055.38
2022-12-23T07:05:42.865Z,100064.22
2022-12-23T07:08:45.380Z,100060.34
2022-12-23T07:11:48.409Z,100034.53
2022-12-23T07:14:51.048Z,100064.53
2022-12-23T07:17:54.585Z,100064.72
2022-12-23T07:21:00.120Z,100054.44
2022-12-23T07:24:03.061Z,100068.41
2022-12-23T07:27:05.540Z,100058.44
2022-12-23T07:30:08.816Z,100076.81
2022-12-23T07:33:11.534Z,100080.31
2022-12-23T07:36:14.047Z,100073.09
2022-12-23T07:39:16.487Z,100085.81
2022-12-23T07:42:45.305Z,100082.75
2022-12-23T07:45:41.891Z,100079.03
2022-12-23T07:48:44.412Z,100058.81
2022-12-23T07:51:46.857Z,100044.34
2022-12-23T07:54:49.700Z,100058.72
2022-12-23T07:57:53.395Z,100054.91
2022-12-23T08:01:03.776Z,100071.13
2022-12-23T08:04:06.512Z,100038.00
2022-12-23T08:07:08.954Z,100069.75
2022-12-23T08:10:12.245Z,100051.28
2022-12-23T08:13:14.747Z,100046.34
2022-12-23T08:16:17.808Z,100016.97
2022-12-23T08:19:20.333Z,100025.56
2022-12-23T08:22:23.889Z,100054.63
2022-12-23T08:25:26.246Z,100042.19
2022-12-23T08:28:29.193Z,100029.97
2022-12-23T08:31:32.073Z,100024.44
2022-12-23T08:34:36.601Z,99997.22
2022-12-23T08:37:39.088Z,100007.63
2022-12-23T08:40:42.731Z,100061.56
2022-12-23T08:43:45.687Z,100067.13
2022-12-23T08:46:48.383Z,100054.47
2022-12-23T08:49:51.172Z,100026.06
2022-12-23T08:52:53.829Z,100036.63
2022-12-23T08:55:56.289Z,100020.25
2022-12-23T08:58:59.725Z,99990.09
2022-12-23T09:02:03.686Z,99984.16
2022-12-23T09:05:06.360Z,99978.66
2022-12-23T09:08:09.339Z,100000.09
2022-12-23T09:11:13.850Z,100000.75
2022-12-23T09:14:16.286Z,99992.06
2022-12-23T09:17:18.773Z,100020.13
2022-12-23T09:20:21.840Z,100027.94
2022-12-23T09:23:24.325Z,100035.97
2022-12-23T09:26:30.116Z,100033.91
2022-12-23T09:29:32.881Z,100017.78
2022-12-23T09:32:35.649Z,100028.53
2022-12-23T09:35:38.243Z,100007.75
2022-12-23T09:38:40.961Z,100018.78
2022-12-23T09:41:57.186Z,100010.31
2022-12-23T09:45:26.141Z,100001.13
2022-12-23T09:48:35.889Z,99964.59
2022-12-23T09:51:38.719Z,99982.91
2022-12-23T09:54:50.140Z,99974.53
2022-12-23T09:58:03.256Z,99983.03
2022-12-23T10:02:02.235Z,99980.06
2022-12-23T10:05:26.448Z,99965.66
2022-12-23T10:08:38.391Z,99956.53
2022-12-23T10:11:44.405Z,99945.44
2022-12-23T10:14:49.232Z,99949.59
2022-12-23T10:17:56.881Z,99944.16
2022-12-23T10:21:07.782Z,99947.06
2022-12-23T10:24:38.605Z,99945.56
2022-12-23T10:27:44.095Z,99932.91
2022-12-23T10:34:47.895Z,99947.59
2022-12-23T10:38:13.792Z,99933.94
2022-12-23T10:41:28.917Z,99931.69
2022-12-23T10:44:40.138Z,99933.59
2022-12-23T10:47:57.920Z,99943.94
2022-12-23T10:51:06.363Z,99919.13
2022-12-23T10:54:20.740Z,99914.31
2022-12-23T10:57:24.779Z,99915.03
2022-12-23T11:00:30.291Z,99890.31
2022-12-23T11:03:44.074Z,99899.97
2022-12-23T11:07:10.613Z,99917.22
2022-12-23T11:10:23.524Z,99922.72
2022-12-23T11:13:36.322Z,99919.69
2022-12-23T11:16:46.005Z,99916.59
2022-12-23T11:20:07.854Z,99922.41
2022-12-23T11:23:28.871Z,99914.91
2022-12-23T11:26:31.400Z,99918.19
2022-12-23T11:29:37.453Z,99912.38
2022-12-23T11:32:42.684Z,99920.50
2022-12-23T11:35:45.657Z,99921.88
2022-12-23T11:38:51.926Z,99931.19
2022-12-23T11:42:03.981Z,99927.25
2022-12-23T11:45:07.836Z,99908.38
2022-12-23T11:48:30.385Z,99930.56
2022-12-23T11:51:32.944Z,99920.44
2022-12-23T11:54:35.314Z,99919.00
2022-12-23T11:57:48.419Z,99921.03
2022-12-23T12:00:58.775Z,99936.81
2022-12-23T12:04:06.314Z,99909.84
2022-12-23T12:07:14.359Z,99920.38
2022-12-23T12:10:26.263Z,99920.72
2022-12-23T12:13:38.755Z,99931.84
2022-12-23T12:17:08.251Z,99909.63
2022-12-23T12:20:37.741Z,99928.66
2022-12-23T12:23:44.689Z,99930.88
2022-12-23T12:26:52.380Z,99934.44
2022-12-23T12:30:07.655Z,99917.63
2022-12-23T12:33:26.296Z,99929.03
2022-12-23T12:36:44.200Z,99939.59
2022-12-23T12:39:54.825Z,99935.81
2022-12-23T12:43:31.655Z,99934.06
2022-12-23T12:46:41.041Z,99918.88
2022-12-23T12:49:51.931Z,99947.75
2022-12-23T12:52:59.167Z,99932.44
2022-12-23T12:56:24.635Z,99936.41
2022-12-23T12:59:39.015Z,99931.31
2022-12-23T13:02:56.584Z,99934.09
2022-12-23T13:06:07.931Z,99931.63
2022-12-23T13:09:33.530Z,99930.72
2022-12-23T13:12:48.349Z,99942.38
2022-12-23T13:16:02.849Z,99937.03
2022-12-23T13:19:24.976Z,99946.22
2022-12-23T13:22:32.393Z,99951.88
2022-12-23T13:25:44.791Z,99937.94
2022-12-23T13:29:11.632Z,99958.75
2022-12-23T13:32:35.388Z,99940.06
2022-12-23T13:36:06.086Z,99928.41
2022-12-23T13:39:30.919Z,99955.81
2022-12-23T13:42:42.815Z,99938.22
2022-12-23T13:45:47.468Z,99943.72
2022-12-23T13:48:56.786Z,99943.38
2022-12-23T13:52:11.485Z,99930.31
2022-12-23T13:55:53.259Z,99940.53
2022-12-23T13:58:58.610Z,99953.31
2022-12-23T14:02:01.081Z,99946.38
2022-12-23T14:05:08.378Z,99963.88
2022-12-23T14:08:24.792Z,99948.41
2022-12-23T14:11:29.769Z,99936.25
2022-12-23T14:14:32.539Z,99940.69
2022-12-23T14:17:51.928Z,99927.09
2022-12-23T14:21:32.706Z,99943.19
2022-12-23T14:24:42.912Z,99951.09
2022-12-23T14:28:03.386Z,99951.81
2022-12-23T14:31:26.398Z,99937.22
2022-12-23T14:34:32.255Z,99961.78
2022-12-23T14:37:37.859Z,99969.75
2022-12-23T14:40:51.047Z,99960.78
2022-12-23T14:43:56.235Z,99978.81
2022-12-23T14:46:59.061Z,99984.50
2022-12-23T14:50:32.713Z,99969.75
2022-12-23T14:53:54.148Z,99962.47
2022-12-23T14:57:17.487Z,99957.75
2022-12-23T15:00:20.909Z,99952.97
2022-12-23T15:03:24.137Z,99966.03
2022-12-23T15:06:38.133Z,99961.22
2022-12-23T15:10:02.748Z,99971.25
2022-12-23T15:13:07.054Z,99968.31
2022-12-23T15:16:16.112Z,99979.53
2022-12-23T15:19:24.697Z,99981.94
2022-12-23T15:22:32.642Z,100000.91
2022-12-23T15:25:40.832Z,100004.75
2022-12-23T15:28:44.081Z,100005.03
2022-12-23T15:31:50.799Z,99992.84
2022-12-23T15:35:02.746Z,99999.78
2022-12-23T15:38:06.246Z,99976.97
2022-12-23T15:41:18.611Z,100005.91
2022-12-23T15:44:24.428Z,100006.69
2022-12-23T15:47:38.604Z,99991.22
2022-12-23T15:50:42.258Z,99991.50
2022-12-23T15:53:47.185Z,99993.28
2022-12-23T15:56:53.421Z,99969.63
2022-12-23T15:59:58.756Z,99990.06
2022-12-23T16:03:03.426Z,99958.69
2022-12-23T16:06:21.080Z,99981.75
2022-12-23T16:09:31.744Z,99984.91
2022-12-23T16:12:34.955Z,99980.03
2022-12-23T16:15:37.458Z,99959.94
2022-12-23T16:18:47.227Z,99975.31
2022-12-23T16:21:50.674Z,99987.34
2022-12-23T16:24:56.250Z,99979.75
2022-12-23T16:28:12.598Z,99956.47
2022-12-23T16:31:20.033Z,99942.28
2022-12-23T16:34:22.599Z,99964.84
2022-12-23T16:37:25.095Z,99992.59
2022-12-23T16:40:32.063Z,99975.50
2022-12-23T16:43:34.904Z,99972.75
2022-12-23T16:46:42.124Z,99969.91
2022-12-23T16:49:45.348Z,99980.13
2022-12-23T16:52:47.877Z,99978.16
2022-12-23T16:55:55.223Z,99975.84
2022-12-23T16:59:01.213Z,99957.09
2022-12-23T17:02:04.185Z,99958.78
2022-12-23T17:05:08.073Z,99967.94
2022-12-23T17:08:10.591Z,99964.53
2022-12-23T17:11:21.686Z,99964.25
2022-12-23T17:14:25.294Z,99968.88
2022-12-23T17:17:27.859Z,99972.81
2022-12-23T17:20:30.806Z,99958.25
2022-12-23T17:23:33.234Z,99964.47
2022-12-23T17:26:35.631Z,99967.94
2022-12-23T17:29:38.254Z,99964.75
2022-12-23T17:32:40.899Z,99963.88
2022-12-23T17:35:44.159Z,99938.72
2022-12-23T17:38:46.589Z,99938.72
2022-12-23T17:41:49.197Z,99932.78
2022-12-23T17:44:51.817Z,99941.09
2022-12-23T17:47:54.741Z,99951.16
2022-12-23T17:50:58.388Z,99948.06
2022-12-23T17:54:00.970Z,99962.06
2022-12-23T17:57:34.898Z,99967.59
2022-12-23T18:00:38.914Z,99962.25
2022-12-23T18:03:41.432Z,99977.41
2022-12-23T18:06:44.035Z,99974.09
2022-12-23T18:09:46.688Z,99965.72
2022-12-23T18:12:55.262Z,99939.22
2022-12-23T18:15:57.736Z,99940.06
2022-12-23T18:19:00.169Z,99945.03
2022-12-23T18:22:02.829Z,99940.88
2022-12-23T18:25:06.429Z,99943.56
2022-12-23T18:28:11.215Z,99953.59
2022-12-23T18:31:20.688Z,99936.28
2022-12-23T18:34:23.310Z,99960.03
2022-12-23T18:37:25.837Z,99960.31
2022-12-23T18:40:33.013Z,99944.66
2022-12-23T18:43:36.000Z,99968.06
2022-12-23T18:46:38.622Z,99965.94
2022-12-23T18:49:41.081Z,99967.81
2022-12-23T18:52:46.772Z,99967.84
2022-12-23T18:55:49.623Z,99970.25
2022-12-23T18:58:52.185Z,99964.13
2022-12-23T19:01:55.252Z,99961.53
2022-12-23T19:04:57.874Z,99974.81
2022-12-23T19:08:00.747Z,99966.09
2022-12-23T19:11:11.478Z,99962.91
2022-12-23T19:14:14.654Z,99985.56
2022-12-23T19:17:17.629Z,99971.44
2022-12-23T19:20:24.238Z,99954.25
2022-12-23T19:23:26.729Z,99979.03
2022-12-23T19:26:29.261Z,99962.56
2022-12-23T19:29:31.719Z,99972.19
2022-12-23T19:32:34.874Z,99971.72
2022-12-23T19:35:37.415Z,99984.31
2022-12-23T19:38:40.691Z,99996.09
2022-12-23T19:41:43.475Z,99983.69
2022-12-23T19:44:46.045Z,99990.44
2022-12-23T19:47:48.458Z,99973.28
2022-12-23T19:51:12.199Z,100006.66
2022-12-23T19:54:15.442Z,100004.31
2022-12-23T19:57:18.115Z,100010.31
2022-12-23T20:00:21.389Z,100016.09
2022-12-23T20:03:23.925Z,100017.69
2022-12-23T20:06:30.593Z,99992.97
2022-12-23T20:09:33.330Z,99989.91
2022-12-23T20:12:36.010Z,99983.28
2022-12-23T20:15:38.500Z,99978.25
2022-12-23T20:18:41.174Z,99983.22
2022-12-23T20:21:45.764Z,99996.19
2022-12-23T20:24:48.162Z,99974.13
2022-12-23T20:27:56.764Z,99984.38
2022-12-23T20:31:15.743Z,99992.59
2022-12-23T20:34:18.353Z,99995.78
2022-12-23T20:37:20.783Z,100004.56
2022-12-23T20:40:25.839Z,99981.91
2022-12-23T20:43:28.503Z,99993.44
2022-12-23T20:46:31.103Z,99980.63
2022-12-23T20:49:34.204Z,99980.06
2022-12-23T20:52:36.802Z,99981.09
2022-12-23T20:55:39.536Z,99973.56
2022-12-23T20:59:02.770Z,99977.47
2022-12-23T21:02:05.682Z,99984.19
2022-12-23T21:05:08.528Z,99967.59
2022-12-23T21:08:11.076Z,99962.34
2022-12-23T21:11:15.749Z,99979.97
2022-12-23T21:14:18.415Z,99970.69
2022-12-23T21:17:21.251Z,99969.09
2022-12-23T21:20:26.335Z,99972.59
2022-12-23T21:23:29.661Z,99944.00
2022-12-23T21:26:33.793Z,99928.28
2022-12-23T21:29:36.314Z,99932.72
2022-12-23T21:32:38.822Z,99931.03
2022-12-23T21:35:41.206Z,99934.50
2022-12-23T21:38:45.459Z,99923.63
2022-12-23T21:41:51.061Z,99913.97
2022-12-23T21:44:53.613Z,99908.31
2022-12-23T21:47:56.350Z,99911.69
2022-12-23T21:51:15.874Z,99918.22
2022-12-23T21:54:18.674Z,99921.75
2022-12-23T21:57:21.111Z,99918.03
2022-12-23T22:00:27.590Z,99909.50
2022-12-23T22:03:30.271Z,99918.22
2022-12-23T22:06:38.799Z,99883.56
2022-12-23T22:09:41.322Z,99880.28
2022-12-23T22:12:43.753Z,99880.91
2022-12-23T22:15:46.251Z,99861.59
2022-12-23T22:18:49.762Z,99860.59
2022-12-23T22:21:52.182Z,99855.63
2022-12-23T22:24:54.633Z,99831.66
2022-12-23T22:27:57.036Z,99840.91
2022-12-23T22:31:12.511Z,99842.50
2022-12-23T22:34:18.309Z,99839.38
2022-12-23T22:37:20.713Z,99852.34
2022-12-23T22:40:23.316Z,99847.91
2022-12-23T22:43:25.954Z,99848.63
2022-12-23T22:46:28.569Z,99845.75
2022-12-23T22:49:31.398Z,99821.66
2022-12-23T22:52:33.888Z,99819.00
2022-12-23T22:55:36.353Z,99826.81
2022-12-23T22:58:39.048Z,99806.97
2022-12-23T23:01:41.463Z,99811.91
2022-12-23T23:04:43.906Z,99814.16
2022-12-23T23:07:47.654Z,99818.59
2022-12-23T23:10:53.146Z,99826.75
2022-12-23T23:13:56.644Z,99790.88
2022-12-23T23:16:59.213Z,99826.75
2022-12-23T23:20:02.238Z,99850.94
2022-12-23T23:23:04.858Z,99846.09
2022-12-23T23:26:11.139Z,99863.66
2022-12-23T23:29:13.523Z,99867.75
2022-12-23T23:32:16.147Z,99873.94
2022-12-23T23:35:19.157Z,99871.66
2022-12-23T23:38:22.232Z,99874.44
2022-12-23T23:41:24.688Z,99847.75
2022-12-23T23:44:27.178Z,99852.66
2022-12-23T23:47:34.455Z,99836.00
2022-12-23T23:50:37.396Z,99825.78
2022-12-23T23:53:40.463Z,99819.22
2022-12-23T23:56:43.082Z,99796.78
2022-12-23T23:59:45.849Z,99794.78
